Time;durP1;ratioP1;P1;durP2;ratioP2;P2;SDS_P1;SDS_P2;PMS_P1;PMS_P2;Temp;Humidity;BMP_temperature;BMP_pressure;BME280_temperature;BME280_humidity;BME280_pressure;Samples;Min_cycle;Max_cycle;Signal;HPM_P1;HPM_P2
2023/04/02 00:01:21;;;;;;;3.72;1.23;;;22.20;48.20;;;;;;4993906;28;20221;-49
2023/04/02 00:04:25;;;;;;;3.13;0.85;;;22.20;48.20;;;;;;4990065;28;20688;-49
2023/04/02 00:07:29;;;;;;;1.85;0.60;;;22.20;48.40;;;;;;4974690;28;20194;-48
2023/04/02 00:10:01;;;;;;;2.10;1.02;;;22.20;48.40;;;;;;4988141;28;20217;-49
2023/04/02 00:12:32;;;;;;;1.73;0.60;;;22.20;48.40;;;;;;4994877;28;20201;-48
2023/04/02 00:15:03;;;;;;;3.78;1.05;;;22.20;49.00;;;;;;4983175;28;20694;-48
2023/04/02 00:17:33;;;;;;;1.67;0.77;;;22.20;48.40;;;;;;4984517;28;20198;-48
2023/04/02 00:20:10;;;;;;;3.65;1.15;;;22.20;48.30;;;;;;4991389;28;20213;-50
2023/04/02 00:22:46;;;;;;;0.88;0.77;;;22.20;48.30;;;;;;4991402;28;20420;-47
2023/04/02 00:25:19;;;;;;;2.20;0.90;;;22.20;48.20;;;;;;4991448;28;20632;-49
2023/04/02 00:27:50;;;;;;;1.92;0.50;;;22.20;48.20;;;;;;4991115;28;20713;-50
2023/04/02 00:30:20;;;;;;;1.58;0.70;;;22.20;48.20;;;;;;4991633;28;20214;-49
2023/04/02 00:32:52;;;;;;;1.98;0.80;;;22.20;48.30;;;;;;4993102;28;20201;-50
2023/04/02 00:35:27;;;;;;;1.42;0.60;;;22.20;48.30;;;;;;4991302;28;20212;-50
2023/04/02 00:37:58;;;;;;;0.75;0.35;;;22.30;48.30;;;;;;4990920;28;20216;-50
2023/04/02 00:40:33;;;;;;;1.05;0.52;;;22.30;48.40;;;;;;4990791;28;20217;-49
2023/04/02 00:43:04;;;;;;;1.35;0.75;;;22.30;48.40;;;;;;4991674;28;20201;-49
2023/04/02 00:45:38;;;;;;;2.45;0.88;;;22.30;48.50;;;;;;4993133;28;20645;-49
2023/04/02 00:48:37;;;;;;;1.38;0.60;;;22.30;48.60;;;;;;4991488;28;20202;-48
2023/04/02 00:51:16;;;;;;;1.35;0.50;;;22.30;48.60;;;;;;4990155;28;20229;-49
2023/04/02 00:53:49;;;;;;;0.77;0.50;;;22.30;48.50;;;;;;4990598;28;20202;-49
2023/04/02 00:56:28;;;;;;;0.95;0.68;;;22.30;48.60;;;;;;4990233;28;20193;-47
2023/04/02 00:59:00;;;;;;;1.83;0.60;;;22.30;48.60;;;;;;4991186;28;20209;-49
2023/04/02 01:01:41;;;;;;;1.20;0.57;;;22.30;48.50;;;;;;4984515;28;20194;-47
2023/04/02 01:04:31;;;;;;;1.65;0.50;;;22.30;48.40;;;;;;4990156;28;20646;-51
2023/04/02 01:07:05;;;;;;;0.70;0.50;;;22.30;48.40;;;;;;4987671;28;20666;-50
2023/04/02 01:09:55;;;;;;;1.15;0.55;;;22.30;48.40;;;;;;4989874;28;20767;-48
2023/04/02 01:12:44;;;;;;;1.73;0.73;;;22.30;48.30;;;;;;4971157;28;20230;-47
2023/04/02 01:15:19;;;;;;;1.85;0.70;;;22.30;48.40;;;;;;4972394;28;20206;-48
2023/04/02 01:18:05;;;;;;;0.50;0.38;;;22.30;48.40;;;;;;4989602;28;20193;-50
2023/04/02 01:21:08;;;;;;;1.10;0.40;;;22.30;48.40;;;;;;4989952;28;20198;-48
2023/04/02 01:23:51;;;;;;;0.30;0.30;;;22.30;49.20;;;;;;4990493;28;20216;-52
2023/04/02 01:26:30;;;;;;;0.98;0.55;;;22.30;48.50;;;;;;4990201;28;20229;-47
2023/04/02 01:29:10;;;;;;;1.00;0.40;;;22.30;48.50;;;;;;4990252;28;20217;-48
2023/04/02 01:31:42;;;;;;;1.38;0.55;;;22.30;48.60;;;;;;4989622;28;20314;-50
2023/04/02 01:34:15;;;;;;;1.17;0.40;;;22.30;48.60;;;;;;4990084;28;20202;-48
2023/04/02 01:36:55;;;;;;;2.28;0.40;;;22.30;48.60;;;;;;4989742;28;20202;-50
2023/04/02 01:39:38;;;;;;;0.98;0.43;;;22.30;48.40;;;;;;4989375;28;20292;-50
2023/04/02 01:42:16;;;;;;;0.65;0.30;;;22.30;48.30;;;;;;4989744;28;20244;-48
2023/04/02 01:44:52;;;;;;;1.20;0.30;;;22.30;48.10;;;;;;4990036;28;20213;-48
2023/04/02 01:47:27;;;;;;;0.90;0.40;;;22.30;48.50;;;;;;4989424;28;20192;-50
2023/04/02 01:50:02;;;;;;;1.15;0.40;;;22.30;47.90;;;;;;4986726;28;20236;-51
2023/04/02 01:52:40;;;;;;;1.45;0.43;;;22.30;47.90;;;;;;4989649;28;20240;-48
2023/04/02 01:55:13;;;;;;;0.68;0.20;;;22.30;48.00;;;;;;4988730;28;20288;-49
2023/04/02 01:57:45;;;;;;;0.65;0.40;;;22.30;48.00;;;;;;4970411;28;20242;-50
2023/04/02 02:00:21;;;;;;;0.40;0.32;;;22.30;48.10;;;;;;4970604;28;20698;-48
2023/04/02 02:02:53;;;;;;;1.48;0.30;;;22.30;48.10;;;;;;4969772;28;20202;-47
2023/04/02 02:05:25;;;;;;;1.23;0.40;;;22.30;48.20;;;;;;4991828;28;20209;-51
2023/04/02 02:07:57;;;;;;;0.57;0.20;;;22.30;48.20;;;;;;4991649;28;20669;-48
2023/04/02 02:10:31;;;;;;;1.75;0.40;;;22.30;48.20;;;;;;4997968;28;20243;-51
2023/04/02 02:13:02;;;;;;;0.38;0.10;;;22.30;48.20;;;;;;4992070;28;20657;-51
2023/04/02 02:15:35;;;;;;;0.55;0.20;;;22.30;48.20;;;;;;4991262;28;20225;-48
2023/04/02 02:18:07;;;;;;;0.38;0.30;;;22.30;48.80;;;;;;4991370;28;20586;-50
2023/04/02 02:44:06;;;;;;;0.82;0.40;;;22.40;48.20;;;;;;5176396;22;20243;-54
2023/04/02 02:46:41;;;;;;;0.20;0.15;;;22.40;48.20;;;;;;4982932;28;20194;-51
2023/04/02 02:49:18;;;;;;;0.47;0.38;;;22.40;48.20;;;;;;4996795;28;20337;-52
2023/04/02 02:51:52;;;;;;;1.23;0.38;;;22.40;48.20;;;;;;5011263;28;20283;-55
2023/04/02 02:54:23;;;;;;;0.95;0.30;;;22.40;48.20;;;;;;5010474;28;20200;-49
2023/04/02 02:56:57;;;;;;;0.60;0.35;;;22.40;48.10;;;;;;5001232;28;20205;-54
2023/04/02 02:59:32;;;;;;;0.57;0.20;;;22.40;48.10;;;;;;4990949;28;20218;-56
2023/04/02 03:02:04;;;;;;;1.55;0.40;;;22.40;48.10;;;;;;4990829;28;20200;-53
2023/04/02 03:04:35;;;;;;;0.95;0.30;;;22.40;48.00;;;;;;4994259;28;20201;-52
2023/04/02 03:07:09;;;;;;;0.35;0.30;;;22.40;47.90;;;;;;5010269;28;20664;-53
2023/04/02 03:09:48;;;;;;;0.65;0.30;;;22.40;47.80;;;;;;5009466;28;20243;-55
2023/04/02 03:12:44;;;;;;;0.77;0.32;;;22.40;47.80;;;;;;4990422;28;20295;-52
2023/04/02 03:15:32;;;;;;;0.52;0.30;;;22.40;47.70;;;;;;4991767;28;20198;-54
2023/04/02 03:18:07;;;;;;;0.77;0.20;;;22.50;47.80;;;;;;4991383;28;20201;-53
2023/04/02 03:20:41;;;;;;;0.70;0.25;;;22.50;47.80;;;;;;4991203;28;20719;-53
2023/04/02 03:23:19;;;;;;;0.88;0.30;;;22.50;47.80;;;;;;4991532;28;20204;-56
2023/04/02 03:25:54;;;;;;;0.68;0.30;;;22.50;47.90;;;;;;4991302;28;20208;-54
2023/04/02 03:28:28;;;;;;;0.85;0.20;;;22.50;47.90;;;;;;4990528;28;20193;-55
2023/04/02 03:31:05;;;;;;;0.35;0.30;;;22.50;47.90;;;;;;4994260;28;20673;-56
2023/04/02 03:33:38;;;;;;;0.65;0.30;;;22.50;47.90;;;;;;4994537;28;20572;-56
2023/04/02 03:36:19;;;;;;;1.13;0.32;;;22.60;48.00;;;;;;5007978;28;20216;-53
2023/04/02 03:38:53;;;;;;;0.50;0.22;;;22.60;47.90;;;;;;4994514;28;20256;-52
2023/04/02 03:41:31;;;;;;;0.30;0.30;;;22.60;47.90;;;;;;4995450;28;20204;-55
2023/04/02 03:44:06;;;;;;;0.77;0.40;;;22.60;47.90;;;;;;4994726;28;20213;-57
2023/04/02 03:46:43;;;;;;;0.50;0.30;;;22.60;47.80;;;;;;4995310;28;20647;-56
2023/04/02 03:49:20;;;;;;;1.27;0.30;;;22.70;47.90;;;;;;4995082;28;20717;-57
2023/04/02 03:51:55;;;;;;;1.10;0.50;;;22.70;47.80;;;;;;4995391;28;20213;-51
2023/04/02 03:54:25;;;;;;;0.45;0.32;;;22.70;47.70;;;;;;4995169;28;20219;-54
2023/04/02 03:56:56;;;;;;;0.73;0.40;;;22.70;47.70;;;;;;4995002;28;20197;-55
2023/04/02 03:59:35;;;;;;;0.30;0.30;;;22.80;47.70;;;;;;4993888;28;20240;-55
2023/04/02 04:02:18;;;;;;;1.02;0.40;;;22.80;47.60;;;;;;4994273;28;20661;-56
2023/04/02 04:04:50;;;;;;;1.33;0.30;;;22.80;47.60;;;;;;4997780;28;20197;-55
2023/04/02 04:07:32;;;;;;;1.10;0.30;;;22.80;47.70;;;;;;5003756;28;20201;-56
2023/04/02 04:10:05;;;;;;;0.73;0.40;;;22.80;47.60;;;;;;4998901;28;20574;-52
2023/04/02 04:12:40;;;;;;;0.57;0.20;;;22.90;47.60;;;;;;5013013;28;20726;-53
2023/04/02 04:15:17;;;;;;;1.15;0.47;;;22.90;47.60;;;;;;5014154;28;20208;-55
2023/04/02 04:17:55;;;;;;;0.20;0.20;;;22.90;47.50;;;;;;5012780;28;20201;-53
2023/04/02 04:20:33;;;;;;;0.30;0.20;;;22.90;47.50;;;;;;5012930;28;20752;-51
2023/04/02 04:23:17;;;;;;;0.50;0.45;;;22.90;47.50;;;;;;5012721;28;20228;-52
2023/04/02 04:25:49;;;;;;;0.65;0.30;;;22.90;47.50;;;;;;5012811;28;20204;-56
2023/04/02 04:28:26;;;;;;;0.40;0.40;;;23.00;47.50;;;;;;5013123;28;20568;-54
2023/04/02 04:31:02;;;;;;;1.30;0.30;;;23.00;47.40;;;;;;5012903;28;20200;-55
2023/04/02 04:33:41;;;;;;;0.60;0.30;;;23.00;47.40;;;;;;5011129;28;20220;-56
2023/04/02 04:36:27;;;;;;;0.30;0.30;;;23.00;47.30;;;;;;5008609;28;20669;-56
2023/04/02 04:39:01;;;;;;;0.50;0.28;;;23.00;47.30;;;;;;5009762;28;20700;-57
2023/04/02 04:41:36;;;;;;;0.65;0.40;;;23.00;47.30;;;;;;5012900;28;20200;-56
2023/04/02 04:44:16;;;;;;;1.00;0.30;;;23.00;47.30;;;;;;5013928;28;20758;-54
2023/04/02 04:46:50;;;;;;;0.32;0.30;;;23.00;47.40;;;;;;5013865;28;20570;-53
2023/04/02 04:49:29;;;;;;;1.38;0.50;;;23.00;47.40;;;;;;5013884;28;20220;-54
2023/04/02 04:52:03;;;;;;;0.98;0.30;;;23.10;47.60;;;;;;5013574;28;20231;-55
2023/04/02 04:54:38;;;;;;;0.65;0.35;;;23.10;47.60;;;;;;5013497;28;20644;-57
2023/04/02 04:57:21;;;;;;;0.68;0.43;;;23.10;47.70;;;;;;5012766;28;20203;-55
2023/04/02 04:59:59;;;;;;;0.63;0.40;;;23.10;47.80;;;;;;5013437;28;20232;-54
2023/04/02 05:02:32;;;;;;;0.70;0.47;;;23.10;47.80;;;;;;5013500;28;20201;-56
2023/04/02 05:05:05;;;;;;;0.95;0.43;;;23.10;47.80;;;;;;5013294;28;20197;-56
2023/04/02 05:07:46;;;;;;;1.45;0.40;;;23.10;47.80;;;;;;5013211;28;20212;-51
2023/04/02 05:10:23;;;;;;;1.38;0.45;;;23.10;47.90;;;;;;5013418;28;20220;-56
2023/04/02 05:12:59;;;;;;;1.23;0.50;;;23.10;47.90;;;;;;5007287;28;20217;-53
2023/04/02 05:15:34;;;;;;;3.00;0.60;;;23.10;47.90;;;;;;4993760;28;20688;-52
2023/04/02 05:18:16;;;;;;;1.98;0.70;;;23.10;48.00;;;;;;4996303;28;20540;-54
2023/04/02 05:20:52;;;;;;;0.88;0.57;;;23.10;47.90;;;;;;5012696;28;20228;-51
2023/04/02 05:23:28;;;;;;;1.88;0.65;;;23.10;48.00;;;;;;5012266;28;20211;-55
2023/04/02 05:26:05;;;;;;;0.80;0.63;;;23.10;48.00;;;;;;5012359;28;20232;-57
2023/04/02 05:28:42;;;;;;;2.33;0.60;;;23.10;48.00;;;;;;5012888;28;20208;-54
2023/04/02 05:31:16;;;;;;;0.65;0.50;;;23.10;48.10;;;;;;5013035;28;20689;-55
2023/04/02 05:33:49;;;;;;;1.95;0.82;;;23.20;48.10;;;;;;5012692;28;20314;-53
2023/04/02 05:36:26;;;;;;;1.73;0.60;;;23.20;48.20;;;;;;5012591;28;20201;-56
2023/04/02 05:38:58;;;;;;;1.15;0.52;;;23.20;48.10;;;;;;5012699;28;20224;-55
2023/04/02 05:41:31;;;;;;;1.50;0.80;;;23.20;48.20;;;;;;5012702;28;20212;-53
2023/04/02 05:44:08;;;;;;;3.42;0.70;;;23.10;48.10;;;;;;5012764;28;20208;-56
2023/04/02 05:46:45;;;;;;;1.73;0.73;;;23.20;48.10;;;;;;5012582;28;20205;-55
2023/04/02 05:49:23;;;;;;;1.83;0.68;;;23.10;48.10;;;;;;5012650;28;20227;-52
2023/04/02 05:51:58;;;;;;;1.00;0.50;;;23.10;48.10;;;;;;5011954;28;20200;-54
2023/04/02 05:54:33;;;;;;;1.58;0.70;;;23.10;48.20;;;;;;5012340;28;20652;-56
2023/04/02 05:57:08;;;;;;;3.42;1.02;;;23.10;48.20;;;;;;5012106;28;20211;-53
2023/04/02 05:59:42;;;;;;;1.23;0.57;;;23.10;48.20;;;;;;5012215;28;20216;-54
2023/04/02 06:02:23;;;;;;;0.80;0.50;;;23.10;48.30;;;;;;5011946;28;20201;-56
2023/04/02 06:04:58;;;;;;;1.92;0.60;;;23.10;48.30;;;;;;5011968;28;20567;-53
2023/04/02 06:07:34;;;;;;;1.35;0.52;;;23.10;48.40;;;;;;5011733;28;20199;-53
2023/04/02 06:10:11;;;;;;;1.33;0.60;;;23.10;48.40;;;;;;5011327;28;20235;-55
2023/04/02 06:12:46;;;;;;;1.50;0.70;;;23.10;48.40;;;;;;5011529;28;20236;-55
2023/04/02 06:15:18;;;;;;;1.15;0.70;;;23.10;48.40;;;;;;5012061;28;20208;-54
2023/04/02 06:17:52;;;;;;;2.03;0.80;;;23.10;48.40;;;;;;5012342;28;20204;-54
2023/04/02 06:20:23;;;;;;;2.05;0.80;;;23.10;48.40;;;;;;5012295;28;20246;-54
2023/04/02 06:23:01;;;;;;;1.20;0.80;;;23.10;48.40;;;;;;5011855;28;20208;-54
2023/04/02 06:25:33;;;;;;;2.15;0.85;;;23.10;48.50;;;;;;5012339;28;20566;-51
2023/04/02 06:28:08;;;;;;;1.05;0.70;;;23.10;48.50;;;;;;5012024;28;20200;-55
2023/04/02 06:30:42;;;;;;;0.95;0.70;;;23.00;48.40;;;;;;5011805;28;20216;-54
2023/04/02 06:33:15;;;;;;;2.00;0.82;;;23.00;49.10;;;;;;5011679;28;20256;-52
2023/04/02 06:35:46;;;;;;;1.80;0.95;;;23.00;48.60;;;;;;5011571;28;20207;-53
2023/04/02 06:38:24;;;;;;;2.20;0.60;;;23.00;48.60;;;;;;5011450;28;20247;-55
2023/04/02 06:40:58;;;;;;;2.03;0.77;;;23.00;48.70;;;;;;4994558;28;20203;-50
2023/04/02 06:43:34;;;;;;;1.88;0.70;;;23.00;48.60;;;;;;5011179;28;20676;-54
2023/04/02 06:46:07;;;;;;;2.05;1.00;;;23.00;48.70;;;;;;5011720;28;20577;-54
2023/04/02 06:48:40;;;;;;;2.42;1.25;;;23.00;48.70;;;;;;5011661;28;20193;-56
2023/04/02 06:51:15;;;;;;;2.95;0.90;;;23.00;48.70;;;;;;5011561;28;20223;-56
2023/04/02 06:53:50;;;;;;;1.77;0.80;;;23.00;48.70;;;;;;5011422;28;20227;-52
2023/04/02 06:56:30;;;;;;;2.45;0.82;;;23.00;48.70;;;;;;5011470;28;20196;-50
2023/04/02 06:59:03;;;;;;;1.77;0.80;;;23.00;48.80;;;;;;5011588;28;20216;-53
2023/04/02 07:01:38;;;;;;;1.52;0.80;;;23.00;48.80;;;;;;5011609;28;20196;-53
2023/04/02 07:04:10;;;;;;;2.03;0.80;;;22.90;48.80;;;;;;5013233;28;20543;-52
2023/04/02 07:06:40;;;;;;;2.00;0.80;;;22.90;48.80;;;;;;5014934;28;20200;-51
2023/04/02 07:09:13;;;;;;;2.03;0.82;;;22.90;48.80;;;;;;5015345;28;20216;-50
2023/04/02 07:11:44;;;;;;;1.23;0.85;;;22.90;48.80;;;;;;5015320;28;20193;-55
2023/04/02 07:14:15;;;;;;;1.88;0.73;;;22.90;48.90;;;;;;5002185;28;20638;-52
2023/04/02 07:16:47;;;;;;;2.00;0.80;;;22.90;48.90;;;;;;4995500;28;20197;-53
2023/04/02 07:19:21;;;;;;;1.23;0.82;;;22.90;48.90;;;;;;4995699;28;20228;-53
2023/04/02 07:21:52;;;;;;;1.83;0.85;;;22.80;48.90;;;;;;4995405;28;20251;-54
2023/04/02 07:24:25;;;;;;;1.67;0.95;;;22.90;49.00;;;;;;5011458;28;20604;-51
2023/04/02 07:26:56;;;;;;;1.17;0.75;;;22.80;49.00;;;;;;5015195;28;20197;-50
2023/04/02 07:29:26;;;;;;;0.80;0.60;;;22.80;49.00;;;;;;5014771;28;20223;-52
2023/04/02 07:31:57;;;;;;;2.15;0.80;;;22.80;49.00;;;;;;5014684;28;20203;-56
2023/04/02 07:34:28;;;;;;;1.38;0.73;;;22.80;49.10;;;;;;5014842;28;20229;-54
2023/04/02 07:36:58;;;;;;;1.17;0.70;;;22.80;49.10;;;;;;5014738;28;20201;-52
2023/04/02 07:39:31;;;;;;;1.67;0.70;;;22.80;49.10;;;;;;5014939;28;20216;-55
2023/04/02 07:42:02;;;;;;;1.58;0.95;;;22.80;49.10;;;;;;5014659;28;20193;-53
2023/04/02 07:44:33;;;;;;;1.40;0.88;;;22.70;49.00;;;;;;5014891;28;20208;-52
2023/04/02 07:47:04;;;;;;;2.13;1.05;;;22.70;49.10;;;;;;5014901;28;20196;-56
2023/04/02 07:49:34;;;;;;;2.25;0.98;;;22.70;49.10;;;;;;5015196;28;20540;-51
2023/04/02 07:52:05;;;;;;;3.30;1.20;;;22.70;49.10;;;;;;5014848;28;20685;-55
2023/04/02 07:54:38;;;;;;;2.05;0.93;;;22.70;49.20;;;;;;5014668;28;20306;-52
2023/04/02 07:57:09;;;;;;;2.55;0.88;;;22.70;49.20;;;;;;5014289;28;20193;-52
2023/04/02 07:59:40;;;;;;;1.77;0.80;;;22.70;49.20;;;;;;5014529;28;20216;-52
2023/04/02 08:02:21;;;;;;;1.30;0.70;;;22.60;49.20;;;;;;5014538;28;20204;-54
2023/04/02 08:04:52;;;;;;;1.25;1.00;;;22.60;49.20;;;;;;5014472;28;20262;-55
2023/04/02 08:07:23;;;;;;;1.77;0.80;;;22.60;49.20;;;;;;5014703;28;20224;-55
2023/04/02 08:09:55;;;;;;;2.03;1.02;;;22.60;49.20;;;;;;5014445;28;20291;-53
2023/04/02 08:12:26;;;;;;;1.70;0.90;;;22.60;49.20;;;;;;5014011;28;20208;-52
2023/04/02 08:14:57;;;;;;;1.33;0.85;;;22.60;49.30;;;;;;5013035;28;20197;-55
2023/04/02 08:17:30;;;;;;;2.10;1.05;;;22.60;49.20;;;;;;5013904;28;20204;-50
2023/04/02 08:20:01;;;;;;;1.88;0.95;;;22.60;49.30;;;;;;5013952;28;20221;-50
2023/04/02 08:22:32;;;;;;;1.90;1.08;;;22.60;49.30;;;;;;5014209;28;20193;-53
2023/04/02 08:25:05;;;;;;;2.33;0.88;;;22.60;49.30;;;;;;5014532;28;20201;-53
2023/04/02 08:27:36;;;;;;;2.00;1.35;;;22.50;49.30;;;;;;5013988;28;20205;-53
2023/04/02 08:30:07;;;;;;;2.85;0.90;;;22.50;49.90;;;;;;5013720;28;20227;-51
2023/04/02 08:32:39;;;;;;;1.80;0.90;;;22.50;49.30;;;;;;5013660;28;20196;-56
2023/04/02 08:35:11;;;;;;;1.73;0.90;;;22.50;49.30;;;;;;5011696;28;20211;-52
2023/04/02 08:37:41;;;;;;;1.40;0.80;;;22.50;49.40;;;;;;4994405;28;20201;-52
2023/04/02 08:40:23;;;;;;;2.03;0.77;;;22.50;49.40;;;;;;4994064;28;20229;-49
2023/04/02 08:43:14;;;;;;;0.70;0.70;;;22.40;49.40;;;;;;5005999;28;20240;-55
2023/04/02 08:45:57;;;;;;;1.85;0.93;;;22.40;49.40;;;;;;5013242;28;20204;-54
2023/04/02 08:48:28;;;;;;;1.23;0.95;;;22.40;49.40;;;;;;5012984;28;20516;-56
2023/04/02 08:50:59;;;;;;;1.33;0.80;;;22.40;49.40;;;;;;5013565;28;20216;-55
2023/04/02 08:53:33;;;;;;;2.70;1.02;;;22.40;49.50;;;;;;5013314;28;20231;-54
2023/04/02 08:56:16;;;;;;;1.40;0.73;;;22.40;49.50;;;;;;5013418;28;20196;-54
2023/04/02 08:58:50;;;;;;;2.15;0.98;;;22.40;49.50;;;;;;5013001;28;20308;-54
2023/04/02 09:01:30;;;;;;;1.88;0.95;;;22.30;49.40;;;;;;5012876;28;20608;-50
2023/04/02 09:04:02;;;;;;;1.98;0.90;;;22.30;49.50;;;;;;5013438;28;20204;-53
2023/04/02 09:06:34;;;;;;;1.60;0.90;;;22.30;49.50;;;;;;5013430;28;20200;-53
2023/04/02 09:09:05;;;;;;;1.52;0.80;;;22.30;49.50;;;;;;5013190;28;20220;-53
2023/04/02 09:11:43;;;;;;;1.50;0.82;;;22.30;49.60;;;;;;5005853;28;20196;-56
2023/04/02 09:14:20;;;;;;;2.50;1.15;;;22.30;49.60;;;;;;4996127;28;20228;-56
2023/04/02 09:16:53;;;;;;;2.28;0.90;;;22.30;49.70;;;;;;5001152;28;20197;-54
2023/04/02 09:19:26;;;;;;;1.55;0.88;;;22.20;49.70;;;;;;4993231;28;20221;-53
2023/04/02 09:22:07;;;;;;;2.08;1.00;;;22.20;49.70;;;;;;4992847;28;20202;-54
2023/04/02 09:24:39;;;;;;;1.70;1.10;;;22.20;49.70;;;;;;4994716;28;20606;-56
2023/04/02 09:27:20;;;;;;;1.60;1.10;;;22.20;49.80;;;;;;4991459;28;20562;-53
2023/04/02 09:29:56;;;;;;;5.45;1.20;;;22.20;49.80;;;;;;5007225;28;20209;-55
2023/04/02 09:32:46;;;;;;;1.73;1.00;;;22.20;49.80;;;;;;4992392;28;20604;-55
2023/04/02 09:35:18;;;;;;;2.75;1.10;;;22.20;49.80;;;;;;4996217;28;20229;-56
2023/04/02 09:37:49;;;;;;;1.60;0.85;;;22.20;49.90;;;;;;4992800;28;20205;-54
2023/04/02 09:40:42;;;;;;;1.67;0.80;;;22.20;49.80;;;;;;4992841;28;20213;-56
2023/04/02 09:43:18;;;;;;;1.92;1.20;;;22.10;49.80;;;;;;4991664;28;20210;-54
2023/04/02 09:45:59;;;;;;;2.65;1.10;;;22.10;49.80;;;;;;4992713;28;20671;-52
2023/04/02 09:48:32;;;;;;;1.55;0.70;;;22.10;49.90;;;;;;4992106;28;20205;-55
2023/04/02 09:51:16;;;;;;;1.65;0.70;;;22.10;49.80;;;;;;4992246;28;20198;-54
2023/04/02 09:53:49;;;;;;;1.48;1.10;;;22.10;49.90;;;;;;4992675;28;20744;-53
2023/04/02 09:56:22;;;;;;;1.05;0.73;;;22.10;49.90;;;;;;5002628;28;20233;-56
2023/04/02 09:59:08;;;;;;;1.50;0.80;;;22.00;49.90;;;;;;5011963;28;20220;-53
2023/04/02 10:01:40;;;;;;;1.98;0.98;;;22.00;49.90;;;;;;5010769;28;20216;-54
2023/04/02 10:04:42;;;;;;;1.45;0.90;;;22.00;49.90;;;;;;5011965;28;20673;-51
2023/04/02 10:07:35;;;;;;;1.90;1.13;;;22.00;50.00;;;;;;4991562;28;20197;-54
2023/04/02 10:10:18;;;;;;;1.50;0.60;;;22.00;50.00;;;;;;4992250;28;20257;-55
2023/04/02 10:12:56;;;;;;;1.50;0.70;;;22.00;49.90;;;;;;4991593;28;20201;-55
2023/04/02 10:15:35;;;;;;;2.55;1.25;;;22.00;50.00;;;;;;4991855;28;20244;-53
2023/04/02 10:18:14;;;;;;;1.48;0.95;;;22.00;50.00;;;;;;4991472;28;20193;-53
2023/04/02 10:20:47;;;;;;;2.53;0.82;;;22.00;50.00;;;;;;4990933;28;20620;-51
2023/04/02 10:23:19;;;;;;;2.10;1.10;;;22.00;50.00;;;;;;4990966;28;20662;-54
2023/04/02 10:25:55;;;;;;;2.58;0.98;;;22.00;50.00;;;;;;4992249;28;20209;-53
2023/04/02 10:28:37;;;;;;;2.30;0.90;;;21.90;50.00;;;;;;4991689;28;20201;-55
2023/04/02 10:31:16;;;;;;;1.42;0.80;;;21.90;50.00;;;;;;4992286;28;20272;-55
2023/04/02 10:33:51;;;;;;;1.58;0.77;;;21.90;50.00;;;;;;4994273;28;20271;-52
2023/04/02 10:36:31;;;;;;;2.22;1.17;;;21.90;50.10;;;;;;5000074;28;20201;-51
2023/04/02 10:39:04;;;;;;;1.35;0.80;;;21.80;50.10;;;;;;4991225;28;20272;-54
2023/04/02 10:41:41;;;;;;;1.80;0.80;;;21.80;50.10;;;;;;4991492;28;20193;-55
2023/04/02 10:44:36;;;;;;;2.28;1.02;;;21.80;50.10;;;;;;4990505;28;20204;-55
2023/04/02 10:47:21;;;;;;;1.75;1.00;;;21.80;50.20;;;;;;4990627;28;20197;-55
2023/04/02 10:50:05;;;;;;;2.38;0.85;;;21.80;50.20;;;;;;4991576;28;20239;-53
2023/04/02 10:52:41;;;;;;;2.47;0.95;;;21.80;50.20;;;;;;5007272;28;20203;-53
2023/04/02 10:55:19;;;;;;;1.52;0.98;;;21.80;50.20;;;;;;5010278;28;20239;-51
2023/04/02 10:57:50;;;;;;;1.65;1.00;;;21.80;50.20;;;;;;4990592;28;20654;-51
2023/04/02 11:00:25;;;;;;;3.13;1.17;;;21.80;50.20;;;;;;4992505;28;20224;-54
2023/04/02 11:03:02;;;;;;;2.88;1.15;;;21.80;50.30;;;;;;5008168;28;20205;-54
2023/04/02 11:05:42;;;;;;;0.63;0.60;;;21.80;50.30;;;;;;5010246;28;20227;-54
2023/04/02 11:08:24;;;;;;;1.02;0.75;;;21.80;50.30;;;;;;4990876;28;20229;-50
2023/04/02 11:10:58;;;;;;;2.15;0.98;;;21.70;50.30;;;;;;4991735;28;20239;-52
2023/04/02 11:13:31;;;;;;;2.22;1.10;;;21.70;50.40;;;;;;4990896;28;20611;-54
2023/04/02 11:16:02;;;;;;;2.08;0.80;;;21.70;50.40;;;;;;4991703;28;20189;-53
2023/04/02 11:18:37;;;;;;;1.58;0.70;;;21.70;50.40;;;;;;4993441;28;20196;-55
2023/04/02 11:21:35;;;;;;;2.72;1.17;;;21.70;50.40;;;;;;4996063;28;20196;-52
2023/04/02 11:24:06;;;;;;;1.67;1.00;;;21.70;50.40;;;;;;5005481;28;20189;-55
2023/04/02 11:26:45;;;;;;;1.63;0.82;;;21.70;50.40;;;;;;5010389;28;20211;-56
2023/04/02 11:29:24;;;;;;;1.60;0.80;;;21.70;50.40;;;;;;5010565;28;20734;-53
2023/04/02 11:32:28;;;;;;;1.30;0.90;;;21.60;50.40;;;;;;5010525;28;20591;-53
2023/04/02 11:35:25;;;;;;;1.88;1.00;;;21.70;50.50;;;;;;5010496;28;20239;-50
2023/04/02 11:37:57;;;;;;;1.70;0.90;;;21.70;50.50;;;;;;4991586;28;20233;-52
2023/04/02 11:40:53;;;;;;;1.45;0.80;;;21.60;50.50;;;;;;4991184;28;20213;-51
2023/04/02 11:43:50;;;;;;;1.85;0.70;;;21.60;50.50;;;;;;4986385;28;20264;-52
2023/04/02 11:46:47;;;;;;;1.23;0.80;;;21.60;50.50;;;;;;4989637;28;20189;-53
2023/04/02 11:49:39;;;;;;;1.95;1.05;;;21.60;50.50;;;;;;4990690;28;20221;-51
2023/04/02 11:52:40;;;;;;;1.27;0.68;;;21.60;50.60;;;;;;4994111;28;20197;-54
2023/04/02 11:55:33;;;;;;;1.42;0.75;;;21.50;50.50;;;;;;4994973;28;20236;-52
2023/04/02 11:58:50;;;;;;;1.98;1.10;;;21.50;50.50;;;;;;4994365;28;20212;-54
2023/04/02 12:01:43;;;;;;;1.33;0.70;;;21.50;50.60;;;;;;4987172;28;20197;-52
2023/04/02 12:04:49;;;;;;;1.25;0.63;;;21.50;50.50;;;;;;4994271;28;20205;-53
2023/04/02 12:08:03;;;;;;;1.23;0.70;;;21.50;50.50;;;;;;4994719;28;20646;-52
2023/04/02 12:10:50;;;;;;;2.42;0.90;;;21.50;50.60;;;;;;4993842;28;20596;-51
2023/04/02 12:13:22;;;;;;;1.20;0.57;;;21.50;50.60;;;;;;4993177;28;20251;-54
2023/04/02 12:15:59;;;;;;;2.15;0.90;;;21.40;50.60;;;;;;4993088;28;20221;-54
2023/04/02 12:18:30;;;;;;;1.92;0.90;;;21.40;50.60;;;;;;4994069;28;20205;-51
2023/04/02 12:21:00;;;;;;;1.77;0.80;;;21.40;50.70;;;;;;4993566;28;20205;-52
2023/04/02 12:23:35;;;;;;;1.90;0.70;;;21.40;50.70;;;;;;4993968;28;20209;-54
2023/04/02 12:26:07;;;;;;;1.33;0.88;;;21.40;50.70;;;;;;4994634;28;20193;-52
2023/04/02 12:28:41;;;;;;;1.70;0.88;;;21.30;50.70;;;;;;4993936;28;20676;-49
2023/04/02 12:31:17;;;;;;;2.95;1.00;;;21.30;50.70;;;;;;4997625;28;20668;-50
2023/04/02 12:33:52;;;;;;;1.58;0.80;;;21.30;50.70;;;;;;4994578;28;20228;-50
2023/04/02 12:36:24;;;;;;;1.15;0.77;;;21.30;50.70;;;;;;5010284;28;20204;-53
2023/04/02 12:38:58;;;;;;;1.73;0.93;;;21.30;50.70;;;;;;5013917;28;20704;-49
2023/04/02 12:41:31;;;;;;;1.52;0.77;;;21.30;50.70;;;;;;5013883;28;20197;-53
2023/04/02 12:44:02;;;;;;;1.75;0.82;;;21.30;50.80;;;;;;5013368;28;20230;-51
2023/04/02 12:46:35;;;;;;;3.00;1.02;;;21.30;50.70;;;;;;5013718;28;20199;-50
2023/04/02 12:49:08;;;;;;;1.52;1.08;;;21.20;50.70;;;;;;5013673;28;20299;-51
2023/04/02 12:51:40;;;;;;;1.20;0.90;;;21.20;50.70;;;;;;5013575;28;20741;-52
2023/04/02 12:54:17;;;;;;;1.25;0.90;;;21.20;50.70;;;;;;5012963;28;20567;-54
2023/04/02 12:56:48;;;;;;;1.63;0.80;;;21.20;50.70;;;;;;5013514;28;20270;-51
2023/04/02 12:59:33;;;;;;;1.83;0.88;;;21.20;50.70;;;;;;5013324;28;20286;-54
2023/04/02 13:02:17;;;;;;;1.25;0.90;;;21.20;50.70;;;;;;5012601;28;20243;-54
2023/04/02 13:04:51;;;;;;;2.00;1.00;;;21.20;50.80;;;;;;5013342;28;20216;-51
2023/04/02 13:07:24;;;;;;;2.15;1.15;;;21.20;50.80;;;;;;5013423;28;20199;-51
2023/04/02 13:09:57;;;;;;;2.40;1.05;;;21.20;50.80;;;;;;5013595;28;20221;-54
2023/04/02 13:12:33;;;;;;;1.25;0.90;;;21.10;50.80;;;;;;5013542;28;20203;-51
2023/04/02 13:15:05;;;;;;;2.60;1.20;;;21.10;50.80;;;;;;5013238;28;20224;-55
2023/04/02 13:17:45;;;;;;;1.63;0.88;;;21.10;50.80;;;;;;5011600;28;20199;-54
2023/04/02 13:20:33;;;;;;;0.95;0.68;;;21.10;50.90;;;;;;4993302;28;20213;-53
2023/04/02 13:23:25;;;;;;;2.13;1.00;;;21.10;50.90;;;;;;4992861;28;20205;-53
2023/04/02 13:25:57;;;;;;;2.33;0.90;;;21.10;51.40;;;;;;5011326;28;20204;-54
2023/04/02 13:28:28;;;;;;;3.00;1.20;;;21.10;50.80;;;;;;5012660;28;20197;-52
2023/04/02 13:30:59;;;;;;;1.63;0.90;;;21.00;50.80;;;;;;5012856;28;20204;-53
2023/04/02 13:33:29;;;;;;;2.53;1.08;;;21.10;50.80;;;;;;5012828;28;20681;-53
2023/04/02 13:36:00;;;;;;;3.63;1.30;;;21.10;50.80;;;;;;5012863;28;20586;-54
2023/04/02 13:38:31;;;;;;;1.70;0.68;;;21.00;50.80;;;;;;5012336;28;20208;-53
2023/04/02 13:41:03;;;;;;;1.85;1.00;;;21.00;50.80;;;;;;5012190;28;20192;-52
2023/04/02 13:43:35;;;;;;;1.58;0.82;;;21.00;50.90;;;;;;5011875;28;20844;-53
2023/04/02 13:46:08;;;;;;;2.13;0.90;;;21.00;50.90;;;;;;5012152;28;20205;-54
2023/04/02 13:48:39;;;;;;;1.83;0.82;;;21.00;50.90;;;;;;5012135;28;20746;-52
2023/04/02 13:51:11;;;;;;;1.63;0.80;;;21.00;51.00;;;;;;5012569;28;20204;-56
2023/04/02 13:53:41;;;;;;;2.13;1.00;;;21.00;51.00;;;;;;5012527;28;20200;-55
2023/04/02 13:56:14;;;;;;;1.95;1.00;;;20.90;50.90;;;;;;5012457;28;20224;-53
2023/04/02 13:58:45;;;;;;;1.55;0.88;;;20.90;50.90;;;;;;5011832;28;20636;-51
2023/04/02 14:01:16;;;;;;;2.63;0.90;;;20.90;50.90;;;;;;5011994;28;20196;-51